createdAt,value
2017-04-09T00:01:13.529Z,0
2017-04-09T00:03:37.094Z,0
2017-04-09T00:06:00.656Z,0
2017-04-09T00:08:24.122Z,0
2017-04-09T00:10:39.291Z,0
2017-04-09T00:13:02.785Z,0
2017-04-09T00:15:26.269Z,0
2017-04-09T00:17:49.731Z,0
2017-04-09T00:20:13.153Z,0
2017-04-09T00:22:36.576Z,0
2017-04-09T00:25:00.050Z,0
2017-04-09T00:27:23.581Z,0
2017-04-09T00:29:46.980Z,0
2017-04-09T00:32:10.387Z,0
2017-04-09T00:34:33.856Z,0
2017-04-09T00:36:57.335Z,0
2017-04-09T00:38:58.531Z,0
2017-04-09T00:41:22.055Z,0
2017-04-09T00:43:45.516Z,0
2017-04-09T00:46:00.577Z,0
2017-04-09T00:48:24.054Z,0
2017-04-09T00:50:39.117Z,0
2017-04-09T00:52:40.400Z,0
2017-04-09T00:55:03.951Z,0
2017-04-09T00:57:18.898Z,0
2017-04-09T00:59:28.677Z,0
2017-04-09T01:01:29.931Z,0
2017-04-09T01:03:53.465Z,0
2017-04-09T01:06:16.928Z,0
2017-04-09T01:08:31.994Z,0
2017-04-09T01:10:55.468Z,0
2017-04-09T01:13:18.942Z,0
2017-04-09T01:15:42.398Z,0
2017-04-09T01:18:05.869Z,0
2017-04-09T01:20:29.343Z,0
2017-04-09T01:22:39.028Z,0
2017-04-09T01:25:02.552Z,0
2017-04-09T01:27:26.021Z,0
2017-04-09T01:29:49.488Z,0
2017-04-09T01:32:04.555Z,0
2017-04-09T01:34:19.633Z,0
2017-04-09T01:36:43.099Z,0
2017-04-09T01:38:58.157Z,0
2017-04-09T01:41:21.529Z,0
2017-04-09T01:43:31.228Z,0
2017-04-09T01:45:54.745Z,0
2017-04-09T01:48:18.218Z,0
2017-04-09T01:50:41.676Z,0
2017-04-09T01:53:05.143Z,0
2017-04-09T01:55:28.603Z,0
2017-04-09T01:57:43.668Z,0
2017-04-09T02:00:07.161Z,0
2017-04-09T02:02:22.223Z,0
2017-04-09T02:04:23.882Z,0
2017-04-09T02:06:38.951Z,0
2017-04-09T02:09:02.407Z,0
2017-04-09T02:11:25.876Z,0
2017-04-09T02:13:35.531Z,0
2017-04-09T02:15:36.662Z,0
2017-04-09T02:18:00.130Z,0
2017-04-09T02:20:23.595Z,0
2017-04-09T02:22:38.677Z,0
2017-04-09T02:25:02.133Z,0
2017-04-09T02:27:25.609Z,0
2017-04-09T02:29:40.662Z,0
2017-04-09T02:31:50.314Z,0
2017-04-09T02:34:13.677Z,0
2017-04-09T02:36:37.037Z,0
2017-04-09T02:39:00.401Z,0
2017-04-09T02:41:01.561Z,0
2017-04-09T02:43:16.615Z,0
2017-04-09T02:45:39.977Z,0
2017-04-09T02:47:54.948Z,0
2017-04-09T02:50:09.913Z,0
2017-04-09T02:52:33.283Z,0
2017-04-09T02:54:56.644Z,0
2017-04-09T02:57:20.009Z,0
2017-04-09T02:59:43.375Z,0
2017-04-09T03:02:06.646Z,0
2017-04-09T03:04:30.001Z,0
2017-04-09T03:06:53.369Z,0
2017-04-09T03:09:16.736Z,0
2017-04-09T03:11:40.097Z,0
2017-04-09T03:13:55.060Z,0
2017-04-09T03:16:18.430Z,0
2017-04-09T03:18:41.795Z,0
2017-04-09T03:21:05.162Z,0
2017-04-09T03:23:28.519Z,0
2017-04-09T03:25:51.901Z,0
2017-04-09T03:28:15.256Z,0
2017-04-09T03:30:30.230Z,0
2017-04-09T03:32:53.573Z,0
2017-04-09T03:35:08.569Z,0
2017-04-09T03:37:32.838Z,0
2017-04-09T03:39:56.205Z,0
2017-04-09T03:42:11.935Z,0
2017-04-09T03:44:34.529Z,0
2017-04-09T03:47:00.877Z,0
2017-04-09T03:49:24.229Z,0
2017-04-09T03:51:47.602Z,0
2017-04-09T03:54:02.565Z,0
2017-04-09T03:56:32.947Z,0
2017-04-09T03:58:57.436Z,0
2017-04-09T04:01:20.030Z,0
2017-04-09T04:03:43.947Z,0
2017-04-09T04:06:07.960Z,0
2017-04-09T04:08:31.249Z,0
2017-04-09T04:10:56.437Z,0
2017-04-09T04:13:11.964Z,0
2017-04-09T04:15:35.936Z,0
2017-04-09T04:17:59.942Z,0
2017-04-09T04:20:14.450Z,0
2017-04-09T04:22:39.440Z,0
2017-04-09T04:25:03.949Z,0
2017-04-09T04:27:26.695Z,0
2017-04-09T04:29:41.565Z,0
2017-04-09T04:31:56.438Z,0
2017-04-09T04:34:19.699Z,0
2017-04-09T04:36:42.965Z,0
2017-04-09T04:39:06.870Z,0
2017-04-09T04:41:30.799Z,0
2017-04-09T04:43:56.457Z,0
2017-04-09T04:46:19.800Z,0
2017-04-09T04:48:35.448Z,0
2017-04-09T04:50:49.543Z,0
2017-04-09T04:53:12.790Z,0
2017-04-09T04:55:36.059Z,0
2017-04-09T04:58:00.446Z,0
2017-04-09T05:00:25.244Z,0
2017-04-09T05:02:36.273Z,0
2017-04-09T05:04:59.590Z,0
2017-04-09T05:07:29.769Z,0
2017-04-09T05:09:58.170Z,0
2017-04-09T05:12:22.767Z,0
2017-04-09T05:14:45.236Z,0
2017-04-09T05:17:14.275Z,0
2017-04-09T05:20:02.274Z,0
2017-04-09T05:22:41.284Z,0
2017-04-09T05:25:04.304Z,0
2017-04-09T05:27:27.887Z,0
2017-04-09T05:29:51.584Z,0
2017-04-09T05:32:15.361Z,0
2017-04-09T05:34:39.271Z,0
2017-04-09T05:37:03.261Z,0
2017-04-09T05:39:27.364Z,0
2017-04-09T05:41:34.500Z,0
2017-04-09T05:43:50.201Z,0
2017-04-09T05:46:06.048Z,0
2017-04-09T05:48:30.346Z,0
2017-04-09T05:50:54.752Z,0
2017-04-09T05:53:19.244Z,0
2017-04-09T05:55:29.346Z,0
2017-04-09T05:57:54.037Z,0
2017-04-09T06:00:18.729Z,0
2017-04-09T06:02:43.446Z,0
2017-04-09T06:05:08.261Z,0
2017-04-09T06:07:33.175Z,0
2017-04-09T06:24:15.620Z,1011.63
2017-04-09T06:26:41.441Z,1011.65
2017-04-09T06:28:51.597Z,1011.69
2017-04-09T06:31:17.258Z,1011.73
2017-04-09T06:33:34.375Z,1011.74
2017-04-09T06:35:36.685Z,1011.72
2017-04-09T06:37:53.836Z,1011.76
2017-04-09T06:40:19.381Z,1011.8
2017-04-09T06:42:44.856Z,1011.79
2017-04-09T06:45:10.282Z,1011.76
2017-04-09T06:47:21.066Z,1011.78
2017-04-09T06:49:46.319Z,1011.72
2017-04-09T06:52:11.520Z,1011.69
2017-04-09T06:54:36.731Z,1011.69
2017-04-09T06:57:01.931Z,1011.62
2017-04-09T06:59:28.647Z,1011.63
2017-04-09T07:01:54.872Z,1011.72
2017-04-09T07:04:20.381Z,1011.8
2017-04-09T07:06:45.841Z,1011.87
2017-04-09T07:09:11.584Z,1011.99
2017-04-09T07:11:37.563Z,1011.97
2017-04-09T07:14:03.775Z,1012.04
2017-04-09T07:16:30.055Z,1012.04
2017-04-09T07:18:56.555Z,1012.1
2017-04-09T07:21:23.886Z,1012.07
2017-04-09T07:23:49.621Z,1012.1
2017-04-09T07:26:16.757Z,1012.11
2017-04-09T07:28:43.908Z,1012.08
2017-04-09T07:34:01.132Z,1012.17
2017-04-09T07:36:28.725Z,1012.21
2017-04-09T07:38:55.953Z,1012.24
2017-04-09T07:41:23.311Z,1012.23
2017-04-09T07:43:50.664Z,1012.15
2017-04-09T07:46:17.864Z,1012.04
2017-04-09T07:48:45.251Z,1012.04
2017-04-09T07:51:12.515Z,1012.03
2017-04-09T07:53:39.598Z,1012.03
2017-04-09T07:56:06.433Z,1011.96
2017-04-09T07:58:34.147Z,1012.02
2017-04-09T08:01:00.435Z,1012
2017-04-09T08:03:27.013Z,1011.96
2017-04-09T08:05:53.007Z,1012.01
2017-04-09T08:08:18.978Z,1012.03
2017-04-09T08:10:44.901Z,1012.02
2017-04-09T08:13:10.702Z,1012.04
2017-04-09T08:15:29.854Z,1011.89
2017-04-09T08:17:55.473Z,1012.05
2017-04-09T08:20:21.217Z,1012.07
2017-04-09T08:22:38.550Z,1011.96
2017-04-09T08:25:05.112Z,1012.07
2017-04-09T08:27:52.154Z,1012.07
2017-04-09T08:30:23.759Z,1012.11
2017-04-09T08:32:57.673Z,1012.16
2017-04-09T08:35:26.093Z,1012.13
2017-04-09T08:37:57.042Z,1012.14
2017-04-09T08:40:24.908Z,1012.15
2017-04-09T08:47:23.888Z,1012.1
2017-04-09T08:51:13.963Z,1012.06
2017-04-09T08:53:40.575Z,1012.08
2017-04-09T08:58:01.063Z,1012.07
2017-04-09T09:00:27.087Z,1012.04
2017-04-09T09:03:05.832Z,1011.99
2017-04-09T09:05:41.486Z,1012.01
2017-04-09T09:08:12.289Z,1012.01
2017-04-09T09:10:55.244Z,1011.99
2017-04-09T09:13:30.494Z,1011.97
2017-04-09T09:15:55.080Z,1011.96
2017-04-09T09:20:18.107Z,1012.02
2017-04-09T09:22:50.465Z,1012
2017-04-09T09:27:04.305Z,1011.97
2017-04-09T09:31:19.556Z,1011.93
2017-04-09T09:33:44.888Z,1011.87
2017-04-09T09:36:10.729Z,1011.85
2017-04-09T09:38:36.946Z,1011.85
2017-04-09T09:41:02.510Z,1011.83
2017-04-09T09:43:21.399Z,1011.82
2017-04-09T09:45:46.724Z,1011.78
2017-04-09T09:48:12.603Z,1011.82
2017-04-09T09:50:39.883Z,1011.77
2017-04-09T09:53:06.127Z,1011.7
2017-04-09T09:55:32.185Z,1011.67
2017-04-09T09:57:58.074Z,1011.65
2017-04-09T10:00:23.169Z,1011.62
2017-04-09T10:02:48.312Z,1011.59
2017-04-09T10:05:13.377Z,1011.56
2017-04-09T10:09:14.708Z,1011.54
2017-04-09T10:11:41.602Z,1011.52
2017-04-09T10:14:08.842Z,1011.52
2017-04-09T10:16:33.995Z,1011.46
2017-04-09T10:19:00.078Z,1011.45
2017-04-09T10:21:25.176Z,1011.42
2017-04-09T10:23:50.181Z,1011.39
2017-04-09T10:26:16.179Z,1011.38
2017-04-09T10:28:41.189Z,1011.37
2017-04-09T10:31:06.195Z,1011.32
2017-04-09T10:33:38.344Z,1011.27
2017-04-09T10:36:03.352Z,1011.27
2017-04-09T10:38:28.148Z,1011.27
2017-04-09T10:40:53.041Z,1011.3
2017-04-09T10:43:17.941Z,1011.29
2017-04-09T10:45:43.057Z,1011.27
2017-04-09T10:48:08.067Z,1011.25
2017-04-09T10:50:33.027Z,1011.19
2017-04-09T10:52:58.913Z,1011.18
2017-04-09T10:55:23.909Z,1011.15
2017-04-09T10:57:48.673Z,1011.14
2017-04-09T11:00:13.582Z,1011.14
2017-04-09T11:02:38.476Z,1011.08
2017-04-09T11:05:03.381Z,1011.1
2017-04-09T11:07:28.189Z,1011.06
2017-04-09T11:09:53.044Z,1011.04
2017-04-09T11:12:17.870Z,1010.99
2017-04-09T11:14:42.677Z,1010.97
2017-04-09T11:17:07.475Z,1010.97
2017-04-09T11:19:32.260Z,1010.95
2017-04-09T11:21:56.942Z,1010.8
2017-04-09T11:24:21.648Z,1010.84
2017-04-09T11:26:46.448Z,1010.8
2017-04-09T11:29:02.792Z,1010.76
2017-04-09T11:31:27.547Z,1010.71
2017-04-09T11:33:52.350Z,1010.72
2017-04-09T11:36:17.139Z,1010.75
2017-04-09T11:38:41.931Z,1010.69
2017-04-09T11:41:06.637Z,1010.68
2017-04-09T11:43:31.426Z,1010.66
2017-04-09T11:45:56.131Z,1010.64
2017-04-09T11:48:20.825Z,1010.58
2017-04-09T11:50:45.621Z,1010.58
2017-04-09T11:53:10.349Z,1010.59
2017-04-09T11:55:34.997Z,1010.49
2017-04-09T11:57:59.697Z,1010.47
2017-04-09T12:00:24.396Z,1010.46
2017-04-09T12:02:40.625Z,1010.44
2017-04-09T12:05:05.398Z,1010.43
2017-04-09T12:07:06.951Z,1010.42
2017-04-09T12:09:23.190Z,1010.38
2017-04-09T12:11:47.953Z,1010.38
2017-04-09T12:13:49.468Z,1010.37
2017-04-09T12:16:14.198Z,1010.34
2017-04-09T12:18:38.906Z,1010.31
2017-04-09T12:21:03.577Z,1010.28
2017-04-09T12:23:28.286Z,1010.21
2017-04-09T12:25:52.963Z,1010.22
2017-04-09T12:28:11.524Z,1010.22
2017-04-09T12:30:36.218Z,1010.21
2017-04-09T12:32:52.427Z,1010.16
2017-04-09T12:35:17.151Z,1010.15
2017-04-09T12:37:41.798Z,1010.14
2017-04-09T12:40:06.511Z,1010.08
2017-04-09T12:42:31.188Z,1010.09
2017-04-09T12:44:55.951Z,1010.01
2017-04-09T12:47:20.595Z,1010.02
2017-04-09T12:49:45.281Z,1009.99
2017-04-09T12:52:09.903Z,1009.97
2017-04-09T12:54:34.466Z,1009.95
2017-04-09T12:56:59.070Z,1009.93
2017-04-09T12:59:23.651Z,1009.92
2017-04-09T13:01:39.977Z,1009.9
2017-04-09T13:04:04.455Z,1009.9
2017-04-09T13:06:29.049Z,1009.91
2017-04-09T13:08:30.572Z,1009.85
2017-04-09T13:10:55.196Z,1009.79
2017-04-09T13:13:19.777Z,1009.78
2017-04-09T13:15:13.316Z,1009.77
2017-04-09T13:17:29.475Z,1009.73
2017-04-09T13:19:54.154Z,1009.72
2017-04-09T13:22:18.833Z,1009.7
2017-04-09T13:24:43.300Z,1009.63
2017-04-09T13:27:07.813Z,1009.62
2017-04-09T13:29:23.946Z,1009.57
2017-04-09T13:31:49.955Z,1009.54
2017-04-09T13:34:14.530Z,1009.52
2017-04-09T13:36:39.141Z,1009.5
2017-04-09T13:38:55.231Z,1009.51
2017-04-09T13:41:19.821Z,1009.46
2017-04-09T13:43:44.408Z,1009.43
2017-04-09T13:46:01.538Z,1009.38
2017-04-09T13:48:17.719Z,1009.37
2017-04-09T13:50:42.941Z,1009.35
2017-04-09T13:53:01.528Z,1009.32
2017-04-09T13:55:26.205Z,1009.33
2017-04-09T13:57:50.884Z,1009.33
2017-04-09T13:59:52.421Z,1009.28
2017-04-09T14:01:54.447Z,1009.23
2017-04-09T14:04:19.037Z,1009.2
2017-04-09T14:06:43.559Z,1009.19
2017-04-09T14:09:08.041Z,1009.13
2017-04-09T14:11:32.572Z,1009.1
2017-04-09T14:13:57.087Z,1009.07
2017-04-09T14:16:21.638Z,1009.02
2017-04-09T14:18:46.184Z,1009.01
2017-04-09T14:21:10.762Z,1008.97
2017-04-09T14:23:35.241Z,1008.94
2017-04-09T14:25:59.694Z,1008.89
2017-04-09T14:28:24.251Z,1008.89
2017-04-09T14:30:48.670Z,1008.83
2017-04-09T14:33:13.206Z,1008.82
2017-04-09T14:35:37.764Z,1008.81
2017-04-09T14:37:53.738Z,1008.72
2017-04-09T14:40:18.208Z,1008.76
2017-04-09T14:42:42.713Z,1008.74
2017-04-09T14:45:07.209Z,1008.75
2017-04-09T14:47:31.700Z,1008.67
2017-04-09T14:49:56.211Z,1008.65
2017-04-09T14:52:20.672Z,1008.62
2017-04-09T14:54:45.134Z,1008.6
2017-04-09T14:57:01.175Z,1008.53
2017-04-09T14:59:25.659Z,1008.58
2017-04-09T15:01:50.162Z,1008.53
2017-04-09T15:04:14.708Z,1008.5
2017-04-09T15:06:39.210Z,1008.47
2017-04-09T15:09:04.489Z,1008.48
2017-04-09T15:11:29.051Z,1008.45
2017-04-09T15:13:53.481Z,1008.43
2017-04-09T15:16:17.983Z,1008.43
2017-04-09T15:18:44.964Z,1008.38
2017-04-09T15:21:09.529Z,1008.33
2017-04-09T15:23:34.162Z,1008.37
2017-04-09T15:25:46.267Z,1008.36
2017-04-09T15:28:11.146Z,1008.37
2017-04-09T15:30:42.599Z,1008.35
2017-04-09T15:33:13.936Z,1008.32
2017-04-09T15:35:38.522Z,1008.32
2017-04-09T15:38:03.193Z,1008.3
2017-04-09T15:40:28.913Z,1008.27
2017-04-09T15:42:45.120Z,1008.22
2017-04-09T15:45:09.613Z,1008.21
2017-04-09T15:47:51.050Z,1008.2
2017-04-09T15:50:15.773Z,1008.16
2017-04-09T15:52:40.218Z,1008.14
2017-04-09T15:55:12.556Z,1008.14
2017-04-09T15:57:44.639Z,1008.07
2017-04-09T16:00:09.656Z,1008.06
2017-04-09T16:02:34.318Z,1007.99
2017-04-09T16:04:58.958Z,1008
2017-04-09T16:07:26.840Z,1007.97
2017-04-09T16:09:51.868Z,1007.95
2017-04-09T16:12:17.245Z,1007.91
2017-04-09T16:14:47.005Z,1007.93
2017-04-09T16:17:11.917Z,1007.91
2017-04-09T16:21:47.815Z,1007.91
2017-04-09T16:24:14.354Z,1007.89
2017-04-09T16:26:45.504Z,1007.86
2017-04-09T16:29:11.856Z,1007.82
2017-04-09T16:31:37.425Z,1007.84
2017-04-09T16:34:02.834Z,1007.86
2017-04-09T16:36:29.428Z,1007.78
2017-04-09T16:38:55.841Z,1007.76
2017-04-09T16:41:24.729Z,1007.77
2017-04-09T16:43:49.355Z,1007.74
2017-04-09T16:46:14.675Z,1007.76
2017-04-09T16:48:41.704Z,1007.74
2017-04-09T16:51:06.417Z,1007.73
2017-04-09T16:53:39.495Z,1007.73
2017-04-09T16:56:05.317Z,1007.72
2017-04-09T16:58:35.151Z,1007.72
2017-04-09T17:01:02.745Z,1007.72
2017-04-09T17:03:27.839Z,1007.68
2017-04-09T17:05:52.920Z,1007.64
2017-04-09T17:08:18.890Z,1007.63
2017-04-09T17:10:43.707Z,1007.6
2017-04-09T17:14:44.055Z,1007.68
2017-04-09T17:18:40.792Z,1007.63
2017-04-09T17:21:05.190Z,1007.64
2017-04-09T17:23:29.666Z,1007.62
2017-04-09T17:25:54.176Z,1007.62
2017-04-09T17:28:18.660Z,1007.64
2017-04-09T17:30:43.182Z,1007.64
2017-04-09T17:33:07.568Z,1007.67
2017-04-09T17:35:09.677Z,1007.68
2017-04-09T17:37:34.211Z,1007.67
2017-04-09T17:39:58.725Z,1007.69
2017-04-09T17:42:12.016Z,1007.68
2017-04-09T17:44:37.388Z,1007.7
2017-04-09T17:47:02.008Z,1007.67
2017-04-09T17:49:26.444Z,1007.68
2017-04-09T17:51:50.806Z,1007.66
2017-04-09T17:54:17.569Z,1007.69
2017-04-09T17:56:42.247Z,1007.66
2017-04-09T17:59:06.449Z,1007.69
2017-04-09T18:01:30.801Z,1007.68
2017-04-09T18:03:55.193Z,1007.67
2017-04-09T18:06:19.621Z,1007.65
2017-04-09T18:08:44.001Z,1007.64
2017-04-09T18:11:15.102Z,1007.66
2017-04-09T18:13:48.968Z,1007.64
2017-04-09T18:16:34.536Z,1007.66
2017-04-09T18:20:40.884Z,1007.71
2017-04-09T18:23:11.518Z,1007.75
2017-04-09T18:25:34.854Z,1007.74
2017-04-09T18:29:40.908Z,1007.78
2017-04-09T18:32:08.816Z,1007.77
2017-04-09T18:34:33.922Z,1007.76
2017-04-09T18:36:59.949Z,1007.84
2017-04-09T18:39:27.296Z,1007.86
2017-04-09T18:41:53.497Z,1007.88
2017-04-09T18:44:18.286Z,1007.9
2017-04-09T18:47:01.063Z,1007.9
2017-04-09T18:56:14.801Z,1007.96
2017-04-09T18:58:42.313Z,1007.99
2017-04-09T19:07:44.682Z,1008.02
2017-04-09T19:10:12.304Z,1007.96
2017-04-09T19:12:38.895Z,1008.01
2017-04-09T19:16:51.835Z,1007.97
2017-04-09T19:19:18.990Z,1007.97
2017-04-09T19:21:45.292Z,1007.97
2017-04-09T19:38:33.578Z,0
2017-04-09T19:41:14.205Z,0
2017-04-09T19:43:42.124Z,0
2017-04-09T19:46:10.936Z,0
2017-04-09T19:48:38.706Z,0
2017-04-09T19:55:49.418Z,0
2017-04-09T19:58:17.185Z,0
2017-04-09T20:00:49.499Z,0
2017-04-09T20:03:13.804Z,0
2017-04-09T20:07:13.726Z,0
2017-04-09T20:09:37.766Z,0
2017-04-09T20:12:02.153Z,0
2017-04-09T20:14:30.090Z,0
2017-04-09T20:16:56.683Z,0
2017-04-09T20:19:29.284Z,0
2017-04-09T20:22:00.466Z,0
2017-04-09T20:24:35.099Z,0
2017-04-09T20:28:37.137Z,0
2017-04-09T20:31:01.212Z,0
2017-04-09T20:33:25.326Z,0
2017-04-09T20:35:49.341Z,0
2017-04-09T20:38:13.291Z,0
2017-04-09T20:40:37.293Z,0
2017-04-09T20:43:01.268Z,0
2017-04-09T20:45:16.840Z,0
2017-04-09T20:47:40.852Z,0
2017-04-09T20:50:04.925Z,0
2017-04-09T20:52:28.928Z,0
2017-04-09T20:54:52.989Z,0
2017-04-09T20:58:53.438Z,0
2017-04-09T21:01:17.460Z,0
2017-04-09T21:03:42.516Z,0
2017-04-09T21:06:06.485Z,0
2017-04-09T21:08:30.506Z,0
2017-04-09T21:10:54.326Z,0
2017-04-09T21:14:54.457Z,0
2017-04-09T21:17:18.474Z,0
2017-04-09T21:19:42.428Z,0
2017-04-09T21:22:06.422Z,0
2017-04-09T21:24:08.188Z,0
2017-04-09T21:26:32.146Z,0
2017-04-09T21:28:56.065Z,0
2017-04-09T21:31:20.007Z,0
2017-04-09T21:33:43.871Z,0
2017-04-09T21:35:59.466Z,0
2017-04-09T21:38:23.338Z,0
2017-04-09T21:40:47.316Z,0
2017-04-09T21:43:12.453Z,0
2017-04-09T21:45:36.386Z,0
2017-04-09T21:48:00.422Z,0
2017-04-09T21:50:24.266Z,0
2017-04-09T21:52:48.233Z,0
2017-04-09T21:55:12.139Z,0
2017-04-09T21:57:36.006Z,0
2017-04-09T21:59:59.868Z,0
2017-04-09T22:02:23.773Z,0
2017-04-09T22:04:47.625Z,0
2017-04-09T22:07:11.513Z,0
2017-04-09T22:09:35.377Z,0
2017-04-09T22:11:59.269Z,0
2017-04-09T22:14:23.130Z,0
2017-04-09T22:16:46.918Z,0
2017-04-09T22:19:10.764Z,0
2017-04-09T22:21:34.637Z,0
2017-04-09T22:23:58.530Z,0
2017-04-09T22:26:23.414Z,0
2017-04-09T22:28:47.304Z,0
2017-04-09T22:31:11.226Z,0
2017-04-09T22:33:34.944Z,0
2017-04-09T22:35:59.868Z,0
2017-04-09T22:38:23.710Z,0
2017-04-09T22:40:34.042Z,0
2017-04-09T22:42:58.011Z,0
2017-04-09T22:45:21.872Z,0
2017-04-09T22:47:45.720Z,0
2017-04-09T22:50:09.601Z,0
2017-04-09T22:52:33.470Z,0
2017-04-09T22:54:57.345Z,0
2017-04-09T22:57:21.259Z,0
2017-04-09T22:59:45.133Z,0
2017-04-09T23:02:09.015Z,0
2017-04-09T23:04:32.879Z,0
2017-04-09T23:06:56.751Z,0
2017-04-09T23:09:20.642Z,0
2017-04-09T23:11:44.474Z,0
2017-04-09T23:14:08.395Z,0
2017-04-09T23:16:32.262Z,0
2017-04-09T23:18:56.111Z,0
2017-04-09T23:21:19.918Z,0
2017-04-09T23:23:43.686Z,0
2017-04-09T23:26:07.437Z,0
2017-04-09T23:28:31.222Z,0
2017-04-09T23:30:55.000Z,0
2017-04-09T23:33:18.784Z,0
2017-04-09T23:35:42.571Z,0
2017-04-09T23:38:06.310Z,0
2017-04-09T23:40:30.081Z,0
2017-04-09T23:42:53.873Z,0
2017-04-09T23:45:17.613Z,0
2017-04-09T23:47:41.352Z,0
2017-04-09T23:49:42.538Z,0
2017-04-09T23:52:06.327Z,0
2017-04-09T23:54:21.679Z,0
2017-04-09T23:56:31.982Z,0
2017-04-09T23:58:56.563Z,0
